sensor_id;sensor_type;location;lat;lon;timestamp;temperature;humidity
24226;DHT22;51462;51.422;5.514;2022-09-03T00:02:20;19.70;99.80
24226;DHT22;51462;51.422;5.514;2022-09-03T00:07:44;19.40;99.90
24226;DHT22;51462;51.422;5.514;2022-09-03T00:10:11;19.50;99.90
24226;DHT22;51462;51.422;5.514;2022-09-03T00:12:41;19.50;99.90
24226;DHT22;51462;51.422;5.514;2022-09-03T00:15:11;19.60;99.90
24226;DHT22;51462;51.422;5.514;2022-09-03T00:17:41;19.50;99.90
24226;DHT22;51462;51.422;5.514;2022-09-03T00:22:57;19.60;99.90
24226;DHT22;51462;51.422;5.514;2022-09-03T00:25:33;19.40;99.90
24226;DHT22;51462;51.422;5.514;2022-09-03T00:28:03;19.40;99.90
24226;DHT22;51462;51.422;5.514;2022-09-03T00:30:31;19.20;99.90
24226;DHT22;51462;51.422;5.514;2022-09-03T00:33:12;19.20;99.90
24226;DHT22;51462;51.422;5.514;2022-09-03T00:35:49;19.00;99.90
24226;DHT22;51462;51.422;5.514;2022-09-03T00:38:15;18.80;99.90
24226;DHT22;51462;51.422;5.514;2022-09-03T00:41:00;18.80;99.90
24226;DHT22;51462;51.422;5.514;2022-09-03T00:44:01;18.70;99.90
24226;DHT22;51462;51.422;5.514;2022-09-03T00:46:44;18.70;99.90
24226;DHT22;51462;51.422;5.514;2022-09-03T00:55:15;18.50;99.90
24226;DHT22;51462;51.422;5.514;2022-09-03T00:58:11;18.30;99.90
24226;DHT22;51462;51.422;5.514;2022-09-03T01:00:41;18.30;99.90
24226;DHT22;51462;51.422;5.514;2022-09-03T01:22:38;18.80;99.90
24226;DHT22;51462;51.422;5.514;2022-09-03T01:30:39;18.70;99.90
24226;DHT22;51462;51.422;5.514;2022-09-03T01:33:17;18.70;99.90
24226;DHT22;51462;51.422;5.514;2022-09-03T01:35:57;18.90;99.90
24226;DHT22;51462;51.422;5.514;2022-09-03T01:38:49;19.00;99.90
24226;DHT22;51462;51.422;5.514;2022-09-03T01:50:49;18.90;99.90
24226;DHT22;51462;51.422;5.514;2022-09-03T01:59:02;19.00;99.90
24226;DHT22;51462;51.422;5.514;2022-09-03T02:01:42;18.80;99.90
24226;DHT22;51462;51.422;5.514;2022-09-03T02:04:21;18.60;99.90
24226;DHT22;51462;51.422;5.514;2022-09-03T02:06:49;18.70;99.90
24226;DHT22;51462;51.422;5.514;2022-09-03T02:09:16;18.20;99.90
24226;DHT22;51462;51.422;5.514;2022-09-03T02:11:43;18.10;99.90
24226;DHT22;51462;51.422;5.514;2022-09-03T02:14:11;18.00;99.90
24226;DHT22;51462;51.422;5.514;2022-09-03T02:16:37;17.90;99.90
24226;DHT22;51462;51.422;5.514;2022-09-03T02:19:12;18.00;99.90
24226;DHT22;51462;51.422;5.514;2022-09-03T02:21:44;18.00;99.90
24226;DHT22;51462;51.422;5.514;2022-09-03T02:24:11;17.80;99.90
24226;DHT22;51462;51.422;5.514;2022-09-03T02:26:37;17.90;99.90
24226;DHT22;51462;51.422;5.514;2022-09-03T02:29:03;17.90;99.90
24226;DHT22;51462;51.422;5.514;2022-09-03T02:31:30;18.00;99.90
24226;DHT22;51462;51.422;5.514;2022-09-03T02:33:56;18.10;99.90
24226;DHT22;51462;51.422;5.514;2022-09-03T02:36:31;18.00;99.90
24226;DHT22;51462;51.422;5.514;2022-09-03T02:38:57;18.10;99.90
24226;DHT22;51462;51.422;5.514;2022-09-03T02:41:23;17.90;99.90
24226;DHT22;51462;51.422;5.514;2022-09-03T02:44:11;17.80;99.90
24226;DHT22;51462;51.422;5.514;2022-09-03T02:46:44;17.80;99.90
24226;DHT22;51462;51.422;5.514;2022-09-03T02:49:11;18.00;99.90
24226;DHT22;51462;51.422;5.514;2022-09-03T02:51:39;17.80;99.90
24226;DHT22;51462;51.422;5.514;2022-09-03T02:54:06;17.70;99.90
24226;DHT22;51462;51.422;5.514;2022-09-03T02:56:32;17.50;99.90
24226;DHT22;51462;51.422;5.514;2022-09-03T02:58:58;17.50;99.90
24226;DHT22;51462;51.422;5.514;2022-09-03T03:01:24;17.40;99.90
24226;DHT22;51462;51.422;5.514;2022-09-03T03:03:50;17.20;99.90
24226;DHT22;51462;51.422;5.514;2022-09-03T03:06:17;17.30;99.90
24226;DHT22;51462;51.422;5.514;2022-09-03T03:08:46;17.40;99.90
24226;DHT22;51462;51.422;5.514;2022-09-03T03:11:12;17.60;99.90
24226;DHT22;51462;51.422;5.514;2022-09-03T03:13:43;17.30;99.90
24226;DHT22;51462;51.422;5.514;2022-09-03T03:16:09;17.70;99.90
24226;DHT22;51462;51.422;5.514;2022-09-03T03:18:34;18.40;99.90
24226;DHT22;51462;51.422;5.514;2022-09-03T03:21:09;18.20;99.90
24226;DHT22;51462;51.422;5.514;2022-09-03T03:23:35;17.90;99.90
24226;DHT22;51462;51.422;5.514;2022-09-03T03:26:04;18.40;99.90
24226;DHT22;51462;51.422;5.514;2022-09-03T03:28:30;18.20;99.90
24226;DHT22;51462;51.422;5.514;2022-09-03T03:31:07;18.40;99.90
24226;DHT22;51462;51.422;5.514;2022-09-03T03:33:33;18.00;99.90
24226;DHT22;51462;51.422;5.514;2022-09-03T03:36:06;17.80;99.90
24226;DHT22;51462;51.422;5.514;2022-09-03T03:38:32;17.70;99.90
24226;DHT22;51462;51.422;5.514;2022-09-03T03:40:58;17.70;99.90
24226;DHT22;51462;51.422;5.514;2022-09-03T03:43:23;17.60;99.90
24226;DHT22;51462;51.422;5.514;2022-09-03T03:45:58;17.70;99.90
24226;DHT22;51462;51.422;5.514;2022-09-03T03:48:25;17.60;99.90
24226;DHT22;51462;51.422;5.514;2022-09-03T03:50:51;17.60;99.90
24226;DHT22;51462;51.422;5.514;2022-09-03T03:53:16;17.90;99.90
24226;DHT22;51462;51.422;5.514;2022-09-03T03:55:42;17.60;99.90
24226;DHT22;51462;51.422;5.514;2022-09-03T03:58:08;17.70;99.90
24226;DHT22;51462;51.422;5.514;2022-09-03T04:00:33;17.90;99.90
24226;DHT22;51462;51.422;5.514;2022-09-03T04:03:03;17.70;99.90
24226;DHT22;51462;51.422;5.514;2022-09-03T04:05:29;17.50;99.90
24226;DHT22;51462;51.422;5.514;2022-09-03T04:07:54;17.60;99.90
24226;DHT22;51462;51.422;5.514;2022-09-03T04:10:20;17.50;99.90
24226;DHT22;51462;51.422;5.514;2022-09-03T04:12:45;17.20;99.90
24226;DHT22;51462;51.422;5.514;2022-09-03T04:15:11;17.20;99.90
24226;DHT22;51462;51.422;5.514;2022-09-03T04:17:37;17.30;99.90
24226;DHT22;51462;51.422;5.514;2022-09-03T04:20:03;17.00;99.90
24226;DHT22;51462;51.422;5.514;2022-09-03T04:22:29;16.70;99.90
24226;DHT22;51462;51.422;5.514;2022-09-03T04:24:54;16.60;99.90
24226;DHT22;51462;51.422;5.514;2022-09-03T04:27:20;16.60;99.90
24226;DHT22;51462;51.422;5.514;2022-09-03T04:29:45;16.50;99.90
24226;DHT22;51462;51.422;5.514;2022-09-03T04:32:11;16.60;99.90
24226;DHT22;51462;51.422;5.514;2022-09-03T04:34:55;16.50;99.90
24226;DHT22;51462;51.422;5.514;2022-09-03T04:37:21;16.60;99.90
24226;DHT22;51462;51.422;5.514;2022-09-03T04:39:47;16.40;99.90
24226;DHT22;51462;51.422;5.514;2022-09-03T04:42:12;16.30;99.90
24226;DHT22;51462;51.422;5.514;2022-09-03T04:44:38;16.30;99.90
24226;DHT22;51462;51.422;5.514;2022-09-03T04:47:05;16.40;99.90
24226;DHT22;51462;51.422;5.514;2022-09-03T04:49:30;16.40;99.90
24226;DHT22;51462;51.422;5.514;2022-09-03T04:51:56;16.30;99.90
24226;DHT22;51462;51.422;5.514;2022-09-03T04:54:21;16.70;99.90
24226;DHT22;51462;51.422;5.514;2022-09-03T04:56:47;16.60;99.90
24226;DHT22;51462;51.422;5.514;2022-09-03T04:59:12;16.40;99.90
24226;DHT22;51462;51.422;5.514;2022-09-03T05:01:39;16.50;99.90
24226;DHT22;51462;51.422;5.514;2022-09-03T05:04:06;16.30;99.90
24226;DHT22;51462;51.422;5.514;2022-09-03T05:06:32;16.70;99.90
24226;DHT22;51462;51.422;5.514;2022-09-03T05:08:58;16.70;99.90
24226;DHT22;51462;51.422;5.514;2022-09-03T05:11:25;16.90;99.90
24226;DHT22;51462;51.422;5.514;2022-09-03T05:13:54;16.80;99.90
24226;DHT22;51462;51.422;5.514;2022-09-03T05:16:20;16.80;99.90
24226;DHT22;51462;51.422;5.514;2022-09-03T05:18:46;16.80;99.90
24226;DHT22;51462;51.422;5.514;2022-09-03T05:21:15;16.80;99.90
24226;DHT22;51462;51.422;5.514;2022-09-03T05:23:43;16.70;99.90
24226;DHT22;51462;51.422;5.514;2022-09-03T05:26:12;16.50;99.90
24226;DHT22;51462;51.422;5.514;2022-09-03T05:28:39;16.60;99.90
24226;DHT22;51462;51.422;5.514;2022-09-03T05:31:07;16.60;99.90
24226;DHT22;51462;51.422;5.514;2022-09-03T05:33:35;16.90;99.90
24226;DHT22;51462;51.422;5.514;2022-09-03T05:36:02;16.80;99.90
24226;DHT22;51462;51.422;5.514;2022-09-03T05:38:28;16.80;99.90
24226;DHT22;51462;51.422;5.514;2022-09-03T05:40:58;16.90;99.90
24226;DHT22;51462;51.422;5.514;2022-09-03T05:43:24;16.80;99.90
24226;DHT22;51462;51.422;5.514;2022-09-03T05:45:49;17.00;99.90
24226;DHT22;51462;51.422;5.514;2022-09-03T05:48:15;17.20;99.90
24226;DHT22;51462;51.422;5.514;2022-09-03T05:50:40;17.40;99.90
24226;DHT22;51462;51.422;5.514;2022-09-03T05:53:06;17.50;99.90
24226;DHT22;51462;51.422;5.514;2022-09-03T05:55:32;18.00;99.90
24226;DHT22;51462;51.422;5.514;2022-09-03T05:57:58;18.00;99.90
24226;DHT22;51462;51.422;5.514;2022-09-03T06:00:23;18.10;99.90
24226;DHT22;51462;51.422;5.514;2022-09-03T06:02:50;18.30;99.90
24226;DHT22;51462;51.422;5.514;2022-09-03T06:05:17;18.10;99.90
24226;DHT22;51462;51.422;5.514;2022-09-03T06:07:43;18.30;99.90
24226;DHT22;51462;51.422;5.514;2022-09-03T06:10:09;18.20;99.90
24226;DHT22;51462;51.422;5.514;2022-09-03T06:12:36;18.20;99.90
24226;DHT22;51462;51.422;5.514;2022-09-03T06:15:03;18.30;99.90
24226;DHT22;51462;51.422;5.514;2022-09-03T06:17:30;18.00;99.90
24226;DHT22;51462;51.422;5.514;2022-09-03T06:19:55;18.10;99.90
24226;DHT22;51462;51.422;5.514;2022-09-03T06:22:21;18.20;99.90
24226;DHT22;51462;51.422;5.514;2022-09-03T06:24:49;18.50;99.90
24226;DHT22;51462;51.422;5.514;2022-09-03T06:27:14;18.70;99.90
24226;DHT22;51462;51.422;5.514;2022-09-03T06:29:40;18.80;99.90
24226;DHT22;51462;51.422;5.514;2022-09-03T06:32:05;18.80;99.90
24226;DHT22;51462;51.422;5.514;2022-09-03T06:34:31;18.90;99.90
24226;DHT22;51462;51.422;5.514;2022-09-03T06:36:57;19.20;99.90
24226;DHT22;51462;51.422;5.514;2022-09-03T06:39:23;19.00;99.90
24226;DHT22;51462;51.422;5.514;2022-09-03T06:41:50;19.20;99.90
24226;DHT22;51462;51.422;5.514;2022-09-03T06:44:16;19.40;99.90
24226;DHT22;51462;51.422;5.514;2022-09-03T06:46:42;19.50;99.90
24226;DHT22;51462;51.422;5.514;2022-09-03T06:49:08;19.30;99.90
24226;DHT22;51462;51.422;5.514;2022-09-03T06:51:34;19.60;99.90
24226;DHT22;51462;51.422;5.514;2022-09-03T06:54:06;19.60;99.90
24226;DHT22;51462;51.422;5.514;2022-09-03T06:56:33;19.60;99.90
24226;DHT22;51462;51.422;5.514;2022-09-03T06:59:04;19.60;99.90
24226;DHT22;51462;51.422;5.514;2022-09-03T07:01:31;19.70;99.90
24226;DHT22;51462;51.422;5.514;2022-09-03T07:03:59;19.70;99.90
24226;DHT22;51462;51.422;5.514;2022-09-03T07:06:27;19.80;99.90
24226;DHT22;51462;51.422;5.514;2022-09-03T07:08:53;19.80;99.90
24226;DHT22;51462;51.422;5.514;2022-09-03T07:11:21;19.70;99.90
24226;DHT22;51462;51.422;5.514;2022-09-03T07:13:49;19.90;99.90
24226;DHT22;51462;51.422;5.514;2022-09-03T07:16:20;19.80;99.90
24226;DHT22;51462;51.422;5.514;2022-09-03T07:18:47;19.90;99.90
24226;DHT22;51462;51.422;5.514;2022-09-03T07:21:18;19.90;99.90
24226;DHT22;51462;51.422;5.514;2022-09-03T07:23:44;19.80;99.90
24226;DHT22;51462;51.422;5.514;2022-09-03T07:26:15;20.00;99.90
24226;DHT22;51462;51.422;5.514;2022-09-03T07:28:42;20.00;99.90
24226;DHT22;51462;51.422;5.514;2022-09-03T07:31:15;20.20;99.90
24226;DHT22;51462;51.422;5.514;2022-09-03T07:33:42;20.10;99.90
24226;DHT22;51462;51.422;5.514;2022-09-03T07:36:13;20.30;99.90
24226;DHT22;51462;51.422;5.514;2022-09-03T07:38:40;20.30;99.90
24226;DHT22;51462;51.422;5.514;2022-09-03T07:41:08;20.40;99.90
24226;DHT22;51462;51.422;5.514;2022-09-03T07:43:41;20.50;99.90
24226;DHT22;51462;51.422;5.514;2022-09-03T07:46:18;20.50;99.90
24226;DHT22;51462;51.422;5.514;2022-09-03T07:48:47;20.40;99.90
24226;DHT22;51462;51.422;5.514;2022-09-03T07:51:13;20.50;99.90
24226;DHT22;51462;51.422;5.514;2022-09-03T07:53:39;20.50;99.90
24226;DHT22;51462;51.422;5.514;2022-09-03T07:56:07;20.60;99.90
24226;DHT22;51462;51.422;5.514;2022-09-03T07:58:34;20.60;99.90
24226;DHT22;51462;51.422;5.514;2022-09-03T08:01:05;20.60;99.90
24226;DHT22;51462;51.422;5.514;2022-09-03T08:03:33;20.70;99.90
24226;DHT22;51462;51.422;5.514;2022-09-03T08:06:01;20.80;99.90
24226;DHT22;51462;51.422;5.514;2022-09-03T08:08:27;20.80;99.90
24226;DHT22;51462;51.422;5.514;2022-09-03T08:10:52;21.00;99.90
24226;DHT22;51462;51.422;5.514;2022-09-03T08:13:18;20.90;99.90
24226;DHT22;51462;51.422;5.514;2022-09-03T08:15:53;20.90;99.90
24226;DHT22;51462;51.422;5.514;2022-09-03T08:18:18;21.00;99.90
24226;DHT22;51462;51.422;5.514;2022-09-03T08:20:44;21.00;99.90
24226;DHT22;51462;51.422;5.514;2022-09-03T08:23:10;21.10;99.90
24226;DHT22;51462;51.422;5.514;2022-09-03T08:25:35;21.20;99.90
24226;DHT22;51462;51.422;5.514;2022-09-03T08:28:01;21.10;99.90
24226;DHT22;51462;51.422;5.514;2022-09-03T08:30:27;21.20;99.90
24226;DHT22;51462;51.422;5.514;2022-09-03T08:32:53;21.20;99.90
24226;DHT22;51462;51.422;5.514;2022-09-03T08:35:19;21.20;99.90
24226;DHT22;51462;51.422;5.514;2022-09-03T08:37:46;21.30;99.90
24226;DHT22;51462;51.422;5.514;2022-09-03T08:40:14;21.40;99.90
24226;DHT22;51462;51.422;5.514;2022-09-03T08:42:48;21.50;99.90
24226;DHT22;51462;51.422;5.514;2022-09-03T08:45:19;21.40;99.90
24226;DHT22;51462;51.422;5.514;2022-09-03T08:48:02;21.50;99.90
24226;DHT22;51462;51.422;5.514;2022-09-03T08:50:32;21.60;99.90
24226;DHT22;51462;51.422;5.514;2022-09-03T08:53:13;21.60;99.90
24226;DHT22;51462;51.422;5.514;2022-09-03T08:58:26;21.70;99.90
24226;DHT22;51462;51.422;5.514;2022-09-03T09:07:16;21.90;99.90
24226;DHT22;51462;51.422;5.514;2022-09-03T09:10:46;22.10;99.90
24226;DHT22;51462;51.422;5.514;2022-09-03T09:12:50;22.10;99.90
24226;DHT22;51462;51.422;5.514;2022-09-03T09:15:52;22.20;99.90
24226;DHT22;51462;51.422;5.514;2022-09-03T09:18:26;22.30;99.90
24226;DHT22;51462;51.422;5.514;2022-09-03T09:23:48;22.30;99.90
24226;DHT22;51462;51.422;5.514;2022-09-03T09:26:19;22.40;99.90
24226;DHT22;51462;51.422;5.514;2022-09-03T09:29:01;22.40;99.90
24226;DHT22;51462;51.422;5.514;2022-09-03T09:31:28;22.50;99.90
24226;DHT22;51462;51.422;5.514;2022-09-03T09:34:00;22.50;99.90
24226;DHT22;51462;51.422;5.514;2022-09-03T09:36:26;22.60;99.90
24226;DHT22;51462;51.422;5.514;2022-09-03T09:38:52;22.70;99.90
24226;DHT22;51462;51.422;5.514;2022-09-03T09:41:19;22.80;99.90
24226;DHT22;51462;51.422;5.514;2022-09-03T09:43:46;22.90;99.90
24226;DHT22;51462;51.422;5.514;2022-09-03T09:46:25;22.90;99.90
24226;DHT22;51462;51.422;5.514;2022-09-03T09:48:56;22.90;99.90
24226;DHT22;51462;51.422;5.514;2022-09-03T09:51:27;23.00;99.90
24226;DHT22;51462;51.422;5.514;2022-09-03T09:56:26;23.20;99.90
24226;DHT22;51462;51.422;5.514;2022-09-03T09:59:03;23.20;99.90
24226;DHT22;51462;51.422;5.514;2022-09-03T10:01:32;23.40;99.90
24226;DHT22;51462;51.422;5.514;2022-09-03T10:03:59;23.40;99.90
24226;DHT22;51462;51.422;5.514;2022-09-03T10:06:32;23.50;99.90
24226;DHT22;51462;51.422;5.514;2022-09-03T10:09:25;23.50;99.90
24226;DHT22;51462;51.422;5.514;2022-09-03T10:14:41;23.70;99.90
24226;DHT22;51462;51.422;5.514;2022-09-03T10:17:26;23.80;99.90
24226;DHT22;51462;51.422;5.514;2022-09-03T10:22:46;23.90;99.90
24226;DHT22;51462;51.422;5.514;2022-09-03T10:25:14;24.10;99.90
24226;DHT22;51462;51.422;5.514;2022-09-03T10:27:41;24.10;99.90
24226;DHT22;51462;51.422;5.514;2022-09-03T10:30:09;24.30;99.90
24226;DHT22;51462;51.422;5.514;2022-09-03T10:33:07;24.40;99.90
24226;DHT22;51462;51.422;5.514;2022-09-03T10:35:42;24.40;99.90
24226;DHT22;51462;51.422;5.514;2022-09-03T10:38:24;24.50;99.90
24226;DHT22;51462;51.422;5.514;2022-09-03T10:41:19;24.60;99.10
24226;DHT22;51462;51.422;5.514;2022-09-03T10:47:11;25.00;99.90
24226;DHT22;51462;51.422;5.514;2022-09-03T10:52:14;25.20;98.90
24226;DHT22;51462;51.422;5.514;2022-09-03T10:54:50;25.20;99.90
24226;DHT22;51462;51.422;5.514;2022-09-03T11:00:09;25.50;99.90
24226;DHT22;51462;51.422;5.514;2022-09-03T11:05:40;25.60;99.90
24226;DHT22;51462;51.422;5.514;2022-09-03T11:08:24;25.60;99.90
24226;DHT22;51462;51.422;5.514;2022-09-03T11:10:55;25.70;99.90
24226;DHT22;51462;51.422;5.514;2022-09-03T11:13:30;26.00;99.70
24226;DHT22;51462;51.422;5.514;2022-09-03T11:16:02;26.20;94.90
24226;DHT22;51462;51.422;5.514;2022-09-03T11:18:49;26.40;96.40
24226;DHT22;51462;51.422;5.514;2022-09-03T11:21:19;26.20;99.90
24226;DHT22;51462;51.422;5.514;2022-09-03T11:23:47;26.20;99.90
24226;DHT22;51462;51.422;5.514;2022-09-03T11:26:18;26.30;99.90
24226;DHT22;51462;51.422;5.514;2022-09-03T11:28:57;26.80;95.80
24226;DHT22;51462;51.422;5.514;2022-09-03T11:31:36;26.70;98.60
24226;DHT22;51462;51.422;5.514;2022-09-03T11:36:47;26.90;99.10
24226;DHT22;51462;51.422;5.514;2022-09-03T11:39:23;27.10;98.60
24226;DHT22;51462;51.422;5.514;2022-09-03T11:44:23;27.40;96.40
24226;DHT22;51462;51.422;5.514;2022-09-03T11:46:59;27.50;94.90
24226;DHT22;51462;51.422;5.514;2022-09-03T11:49:30;27.40;97.40
24226;DHT22;51462;51.422;5.514;2022-09-03T11:52:01;27.40;97.60
24226;DHT22;51462;51.422;5.514;2022-09-03T11:54:31;27.50;97.40
24226;DHT22;51462;51.422;5.514;2022-09-03T11:57:11;27.50;97.80
24226;DHT22;51462;51.422;5.514;2022-09-03T11:59:38;28.00;95.60
24226;DHT22;51462;51.422;5.514;2022-09-03T12:05:16;28.90;92.70
24226;DHT22;51462;51.422;5.514;2022-09-03T12:13:25;28.00;96.80
24226;DHT22;51462;51.422;5.514;2022-09-03T12:16:16;28.70;92.00
24226;DHT22;51462;51.422;5.514;2022-09-03T12:18:47;29.20;92.10
24226;DHT22;51462;51.422;5.514;2022-09-03T12:21:17;29.20;94.90
24226;DHT22;51462;51.422;5.514;2022-09-03T12:23:47;29.40;92.90
24226;DHT22;51462;51.422;5.514;2022-09-03T12:26:19;29.30;94.20
24226;DHT22;51462;51.422;5.514;2022-09-03T12:28:50;29.10;95.40
24226;DHT22;51462;51.422;5.514;2022-09-03T12:31:17;29.30;90.80
24226;DHT22;51462;51.422;5.514;2022-09-03T12:34:11;30.00;90.10
24226;DHT22;51462;51.422;5.514;2022-09-03T12:39:14;30.50;92.60
24226;DHT22;51462;51.422;5.514;2022-09-03T12:47:20;30.10;94.10
24226;DHT22;51462;51.422;5.514;2022-09-03T12:49:51;30.30;93.70
24226;DHT22;51462;51.422;5.514;2022-09-03T12:55:04;30.00;94.30
24226;DHT22;51462;51.422;5.514;2022-09-03T13:00:21;31.20;87.10
24226;DHT22;51462;51.422;5.514;2022-09-03T13:03:04;31.70;83.90
24226;DHT22;51462;51.422;5.514;2022-09-03T13:05:50;31.80;81.30
24226;DHT22;51462;51.422;5.514;2022-09-03T13:08:26;31.80;89.10
24226;DHT22;51462;51.422;5.514;2022-09-03T13:10:58;32.60;87.70
24226;DHT22;51462;51.422;5.514;2022-09-03T13:13:36;31.40;89.80
24226;DHT22;51462;51.422;5.514;2022-09-03T13:21:13;32.20;90.40
24226;DHT22;51462;51.422;5.514;2022-09-03T13:23:48;31.60;91.30
24226;DHT22;51462;51.422;5.514;2022-09-03T13:26:32;31.80;83.60
24226;DHT22;51462;51.422;5.514;2022-09-03T13:29:23;32.00;88.00
24226;DHT22;51462;51.422;5.514;2022-09-03T13:31:59;32.60;89.60
24226;DHT22;51462;51.422;5.514;2022-09-03T13:34:31;33.20;79.30
24226;DHT22;51462;51.422;5.514;2022-09-03T13:37:19;33.60;83.30
24226;DHT22;51462;51.422;5.514;2022-09-03T13:39:53;34.30;76.10
24226;DHT22;51462;51.422;5.514;2022-09-03T13:42:37;34.30;82.80
24226;DHT22;51462;51.422;5.514;2022-09-03T13:45:25;33.20;87.90
24226;DHT22;51462;51.422;5.514;2022-09-03T13:48:17;34.50;73.20
24226;DHT22;51462;51.422;5.514;2022-09-03T13:51:36;34.10;83.40
24226;DHT22;51462;51.422;5.514;2022-09-03T13:54:09;34.20;77.70
24226;DHT22;51462;51.422;5.514;2022-09-03T13:59:22;34.50;84.30
24226;DHT22;51462;51.422;5.514;2022-09-03T14:07:34;36.40;76.40
24226;DHT22;51462;51.422;5.514;2022-09-03T14:13:13;36.00;68.60
24226;DHT22;51462;51.422;5.514;2022-09-03T14:15:45;36.80;75.20
24226;DHT22;51462;51.422;5.514;2022-09-03T14:21:21;38.10;72.80
24226;DHT22;51462;51.422;5.514;2022-09-03T14:26:34;38.90;60.30
24226;DHT22;51462;51.422;5.514;2022-09-03T14:37:46;36.70;60.20
24226;DHT22;51462;51.422;5.514;2022-09-03T14:40:18;35.30;73.90
24226;DHT22;51462;51.422;5.514;2022-09-03T14:48:57;36.60;72.80
24226;DHT22;51462;51.422;5.514;2022-09-03T14:51:37;36.10;74.20
24226;DHT22;51462;51.422;5.514;2022-09-03T14:54:26;36.50;62.60
24226;DHT22;51462;51.422;5.514;2022-09-03T14:57:15;36.40;63.10
24226;DHT22;51462;51.422;5.514;2022-09-03T15:00:28;36.70;61.00
24226;DHT22;51462;51.422;5.514;2022-09-03T15:05:53;35.70;72.30
24226;DHT22;51462;51.422;5.514;2022-09-03T15:11:04;35.20;75.60
24226;DHT22;51462;51.422;5.514;2022-09-03T15:13:44;35.90;65.20
24226;DHT22;51462;51.422;5.514;2022-09-03T15:16:39;35.70;69.60
24226;DHT22;51462;51.422;5.514;2022-09-03T15:19:47;35.80;68.90
24226;DHT22;51462;51.422;5.514;2022-09-03T15:28:11;35.70;71.50
24226;DHT22;51462;51.422;5.514;2022-09-03T15:30:54;34.90;75.70
24226;DHT22;51462;51.422;5.514;2022-09-03T15:33:32;34.70;70.00
24226;DHT22;51462;51.422;5.514;2022-09-03T15:36:27;34.40;73.80
24226;DHT22;51462;51.422;5.514;2022-09-03T15:39:03;34.00;79.70
24226;DHT22;51462;51.422;5.514;2022-09-03T15:41:49;33.90;80.70
24226;DHT22;51462;51.422;5.514;2022-09-03T15:44:16;34.40;80.50
24226;DHT22;51462;51.422;5.514;2022-09-03T15:46:47;34.40;80.30
24226;DHT22;51462;51.422;5.514;2022-09-03T15:57:49;33.70;79.00
24226;DHT22;51462;51.422;5.514;2022-09-03T16:00:19;33.50;82.70
24226;DHT22;51462;51.422;5.514;2022-09-03T16:05:40;33.40;83.90
24226;DHT22;51462;51.422;5.514;2022-09-03T16:08:09;33.50;81.60
24226;DHT22;51462;51.422;5.514;2022-09-03T16:11:06;33.80;83.50
24226;DHT22;51462;51.422;5.514;2022-09-03T16:19:10;33.50;77.50
24226;DHT22;51462;51.422;5.514;2022-09-03T16:21:43;33.30;84.00
24226;DHT22;51462;51.422;5.514;2022-09-03T16:24:22;33.60;83.90
24226;DHT22;51462;51.422;5.514;2022-09-03T16:27:01;33.70;76.00
24226;DHT22;51462;51.422;5.514;2022-09-03T16:29:29;33.50;82.80
24226;DHT22;51462;51.422;5.514;2022-09-03T16:35:01;33.30;80.30
24226;DHT22;51462;51.422;5.514;2022-09-03T16:38:00;33.80;78.20
24226;DHT22;51462;51.422;5.514;2022-09-03T16:40:40;33.60;82.80
24226;DHT22;51462;51.422;5.514;2022-09-03T16:49:08;33.70;83.00
24226;DHT22;51462;51.422;5.514;2022-09-03T16:57:53;34.30;82.90
24226;DHT22;51462;51.422;5.514;2022-09-03T17:00:27;34.50;82.50
24226;DHT22;51462;51.422;5.514;2022-09-03T17:08:14;33.80;83.50
24226;DHT22;51462;51.422;5.514;2022-09-03T17:24:49;32.40;83.50
24226;DHT22;51462;51.422;5.514;2022-09-03T17:33:18;31.40;82.00
24226;DHT22;51462;51.422;5.514;2022-09-03T17:41:52;31.20;83.30
24226;DHT22;51462;51.422;5.514;2022-09-03T17:44:48;31.00;83.70
24226;DHT22;51462;51.422;5.514;2022-09-03T17:50:25;31.20;85.80
24226;DHT22;51462;51.422;5.514;2022-09-03T17:53:10;31.40;86.10
24226;DHT22;51462;51.422;5.514;2022-09-03T17:55:52;31.80;85.00
24226;DHT22;51462;51.422;5.514;2022-09-03T17:59:28;31.90;84.80
24226;DHT22;51462;51.422;5.514;2022-09-03T18:01:37;31.70;85.20
24226;DHT22;51462;51.422;5.514;2022-09-03T18:04:30;31.40;86.00
24226;DHT22;51462;51.422;5.514;2022-09-03T18:10:08;31.70;85.80
24226;DHT22;51462;51.422;5.514;2022-09-03T18:17:57;31.60;86.10
24226;DHT22;51462;51.422;5.514;2022-09-03T18:20:24;31.50;86.60
24226;DHT22;51462;51.422;5.514;2022-09-03T18:23:31;31.30;86.80
24226;DHT22;51462;51.422;5.514;2022-09-03T18:26:25;31.40;86.60
24226;DHT22;51462;51.422;5.514;2022-09-03T18:29:38;31.30;86.60
24226;DHT22;51462;51.422;5.514;2022-09-03T18:32:23;31.20;87.50
24226;DHT22;51462;51.422;5.514;2022-09-03T18:35:08;31.10;87.30
24226;DHT22;51462;51.422;5.514;2022-09-03T18:37:53;31.00;87.30
24226;DHT22;51462;51.422;5.514;2022-09-03T18:44:01;31.00;87.70
24226;DHT22;51462;51.422;5.514;2022-09-03T18:47:07;30.80;87.90
24226;DHT22;51462;51.422;5.514;2022-09-03T18:50:18;30.70;88.00
24226;DHT22;51462;51.422;5.514;2022-09-03T18:55:56;30.50;87.60
24226;DHT22;51462;51.422;5.514;2022-09-03T18:59:10;30.50;87.40
24226;DHT22;51462;51.422;5.514;2022-09-03T19:01:58;30.30;88.00
24226;DHT22;51462;51.422;5.514;2022-09-03T19:07:58;29.80;88.50
24226;DHT22;51462;51.422;5.514;2022-09-03T19:10:52;29.80;88.70
24226;DHT22;51462;51.422;5.514;2022-09-03T19:13:39;29.80;89.90
24226;DHT22;51462;51.422;5.514;2022-09-03T19:16:53;29.70;89.70
24226;DHT22;51462;51.422;5.514;2022-09-03T19:20:00;29.50;90.20
24226;DHT22;51462;51.422;5.514;2022-09-03T19:22:45;29.40;90.40
24226;DHT22;51462;51.422;5.514;2022-09-03T19:25:29;29.20;90.70
24226;DHT22;51462;51.422;5.514;2022-09-03T19:28:24;29.00;90.40
24226;DHT22;51462;51.422;5.514;2022-09-03T19:43:43;28.20;92.50
24226;DHT22;51462;51.422;5.514;2022-09-03T19:46:53;28.10;93.20
24226;DHT22;51462;51.422;5.514;2022-09-03T19:50:40;28.20;92.90
24226;DHT22;51462;51.422;5.514;2022-09-03T19:53:12;28.00;92.90
24226;DHT22;51462;51.422;5.514;2022-09-03T19:56:04;27.80;94.10
24226;DHT22;51462;51.422;5.514;2022-09-03T19:58:59;27.40;95.30
24226;DHT22;51462;51.422;5.514;2022-09-03T20:01:46;27.00;97.10
24226;DHT22;51462;51.422;5.514;2022-09-03T20:04:55;26.90;97.60
24226;DHT22;51462;51.422;5.514;2022-09-03T20:07:38;27.10;97.50
24226;DHT22;51462;51.422;5.514;2022-09-03T20:10:23;27.10;95.50
24226;DHT22;51462;51.422;5.514;2022-09-03T20:13:02;27.20;95.80
24226;DHT22;51462;51.422;5.514;2022-09-03T20:16:04;27.20;94.90
24226;DHT22;51462;51.422;5.514;2022-09-03T20:18:54;27.00;97.20
24226;DHT22;51462;51.422;5.514;2022-09-03T20:21:47;26.90;96.60
24226;DHT22;51462;51.422;5.514;2022-09-03T20:30:17;26.70;97.50
24226;DHT22;51462;51.422;5.514;2022-09-03T20:32:56;26.60;98.70
24226;DHT22;51462;51.422;5.514;2022-09-03T20:38:24;26.60;95.90
24226;DHT22;51462;51.422;5.514;2022-09-03T20:41:41;26.40;98.00